AAL919 KMIA-SKCL
Flight info
| Callsign | AAL919 |
|---|---|
| Flight time | 3h 16m |
| Altitude | 37000 |
| Route | GWAVA2 URSUS UP406 BILSI/N0462F360 DCT NIBEO/N0461F370 UM221 COLBY UM542 TBG UN420 BUSMO/N0423F230 A321 ASIKO ASIKO1C |
| Aircraft | B38M/M-SDE1FGHILORVWXY/HB1 |
Departure
| Time | 2026-04-20 19:18 |
|---|---|
| Airport | Miami International Airport (KMIA) |
Arrival
| Time | 2026-04-20 22:35 |
|---|---|
| Airport | Alfonso Bonilla Aragon International Airport (SKCL) |
| Time | Latitude | Longitude | Altitude | Speed | Heading |
|---|---|---|---|---|---|
| 2026-04-20 18:48 | 25.79823 | -80.28317 | 18 ft | 0 kts | 178° |
| 2026-04-20 19:08 | 25.79824 | -80.28317 | 18 ft | 1 kts | 178° |
| 2026-04-20 19:08 | 25.79870 | -80.28319 | 21 ft | 4 kts | 187° |
| 2026-04-20 19:08 | 25.79887 | -80.28309 | 20 ft | 4 kts | 257° |
| 2026-04-20 19:09 | 25.79889 | -80.28281 | 19 ft | 4 kts | 267° |
| 2026-04-20 19:09 | 25.79889 | -80.28276 | 18 ft | 0 kts | 267° |
| 2026-04-20 19:13 | 25.79890 | -80.28289 | 20 ft | 3 kts | 275° |
| 2026-04-20 19:13 | 25.79906 | -80.28310 | 18 ft | 4 kts | 333° |
| 2026-04-20 19:14 | 25.79960 | -80.28318 | 18 ft | 13 kts | 0° |
| 2026-04-20 19:14 | 25.80031 | -80.28370 | 17 ft | 15 kts | 276° |
| 2026-04-20 19:14 | 25.80030 | -80.28485 | 18 ft | 15 kts | 268° |
| 2026-04-20 19:14 | 25.80025 | -80.28597 | 21 ft | 14 kts | 268° |
| 2026-04-20 19:15 | 25.80021 | -80.28701 | 24 ft | 13 kts | 268° |
| 2026-04-20 19:15 | 25.80017 | -80.28806 | 25 ft | 14 kts | 266° |
| 2026-04-20 19:15 | 25.80011 | -80.28927 | 23 ft | 17 kts | 267° |
| 2026-04-20 19:15 | 25.80005 | -80.29067 | 23 ft | 19 kts | 267° |
| 2026-04-20 19:16 | 25.79999 | -80.29213 | 24 ft | 20 kts | 268° |
| 2026-04-20 19:16 | 25.79992 | -80.29377 | 20 ft | 23 kts | 268° |
| 2026-04-20 19:16 | 25.79984 | -80.29571 | 16 ft | 26 kts | 268° |
| 2026-04-20 19:16 | 25.79977 | -80.29771 | 16 ft | 25 kts | 268° |
| 2026-04-20 19:17 | 25.79975 | -80.29968 | 14 ft | 24 kts | 281° |
| 2026-04-20 19:17 | 25.80007 | -80.30076 | 15 ft | 15 kts | 291° |
| 2026-04-20 19:17 | 25.80063 | -80.30111 | 17 ft | 7 kts | 46° |
| 2026-04-20 19:17 | 25.80072 | -80.30084 | 16 ft | 0 kts | 82° |
| 2026-04-20 19:18 | 25.80088 | -80.29694 | 16 ft | 86 kts | 87° |
| 2026-04-20 19:18 | 25.80125 | -80.28785 | 24 ft | 147 kts | 88° |
| 2026-04-20 19:18 | 25.80161 | -80.27969 | 243 ft | 161 kts | 86° |
| 2026-04-20 19:18 | 25.80245 | -80.26669 | 889 ft | 174 kts | 84° |
| 2026-04-20 19:19 | 25.80084 | -80.25301 | 1639 ft | 191 kts | 108° |
| 2026-04-20 19:19 | 25.79186 | -80.24048 | 1990 ft | 230 kts | 134° |
| 2026-04-20 19:19 | 25.77884 | -80.22857 | 2455 ft | 253 kts | 137° |
| 2026-04-20 19:19 | 25.76489 | -80.21628 | 3493 ft | 250 kts | 140° |
| 2026-04-20 19:20 | 25.75096 | -80.20391 | 4320 ft | 267 kts | 141° |
| 2026-04-20 19:20 | 25.73437 | -80.19396 | 4603 ft | 275 kts | 171° |
| 2026-04-20 19:20 | 25.71555 | -80.19240 | 5627 ft | 273 kts | 179° |
| 2026-04-20 19:20 | 25.69635 | -80.19133 | 6471 ft | 278 kts | 179° |
| 2026-04-20 19:21 | 25.67700 | -80.19053 | 7320 ft | 280 kts | 185° |
| 2026-04-20 19:21 | 25.65763 | -80.19253 | 8188 ft | 281 kts | 189° |
| 2026-04-20 19:21 | 25.63799 | -80.19499 | 8984 ft | 287 kts | 189° |
| 2026-04-20 19:21 | 25.61797 | -80.19347 | 9867 ft | 295 kts | 166° |
| 2026-04-20 19:22 | 25.59900 | -80.18361 | 10420 ft | 311 kts | 152° |
| 2026-04-20 19:22 | 25.57976 | -80.17115 | 10774 ft | 331 kts | 151° |
| 2026-04-20 19:22 | 25.55934 | -80.15790 | 11091 ft | 350 kts | 151° |
| 2026-04-20 19:22 | 25.53802 | -80.14392 | 11535 ft | 362 kts | 151° |
| 2026-04-20 19:23 | 25.51618 | -80.12956 | 12224 ft | 365 kts | 151° |
| 2026-04-20 19:23 | 25.49417 | -80.11506 | 12900 ft | 371 kts | 152° |
| 2026-04-20 19:23 | 25.47187 | -80.10037 | 13559 ft | 375 kts | 152° |
| 2026-04-20 19:23 | 25.44931 | -80.08551 | 14204 ft | 379 kts | 152° |
| 2026-04-20 19:24 | 25.42652 | -80.07050 | 14823 ft | 383 kts | 152° |
| 2026-04-20 19:24 | 25.40380 | -80.05555 | 15439 ft | 386 kts | 152° |
| 2026-04-20 19:24 | 25.38061 | -80.04030 | 16039 ft | 390 kts | 152° |
| 2026-04-20 19:24 | 25.35720 | -80.02491 | 16626 ft | 394 kts | 152° |
| 2026-04-20 19:25 | 25.33355 | -80.00937 | 17209 ft | 397 kts | 152° |
| 2026-04-20 19:25 | 25.30973 | -79.99372 | 17778 ft | 400 kts | 152° |
| 2026-04-20 19:25 | 25.28565 | -79.97791 | 18324 ft | 404 kts | 152° |
| 2026-04-20 19:25 | 25.26163 | -79.96155 | 18802 ft | 408 kts | 150° |
| 2026-04-20 19:26 | 25.23770 | -79.94444 | 19258 ft | 411 kts | 150° |
| 2026-04-20 19:26 | 25.21352 | -79.92726 | 19715 ft | 415 kts | 150° |
| 2026-04-20 19:26 | 25.18913 | -79.90998 | 20170 ft | 418 kts | 150° |
| 2026-04-20 19:26 | 25.16452 | -79.89256 | 20617 ft | 422 kts | 150° |
| 2026-04-20 19:27 | 25.13970 | -79.87501 | 21054 ft | 425 kts | 150° |
| 2026-04-20 19:27 | 25.11466 | -79.85732 | 21494 ft | 429 kts | 150° |
| 2026-04-20 19:27 | 25.08945 | -79.83951 | 21930 ft | 432 kts | 150° |
| 2026-04-20 19:27 | 25.06396 | -79.82152 | 22358 ft | 436 kts | 150° |
| 2026-04-20 19:28 | 25.03835 | -79.80345 | 22780 ft | 439 kts | 150° |
| 2026-04-20 19:28 | 25.01250 | -79.78522 | 23186 ft | 443 kts | 150° |
| 2026-04-20 19:28 | 24.98640 | -79.76682 | 23575 ft | 447 kts | 150° |
| 2026-04-20 19:28 | 24.96015 | -79.74833 | 23928 ft | 449 kts | 150° |
| 2026-04-20 19:29 | 24.93376 | -79.72975 | 24319 ft | 451 kts | 150° |
| 2026-04-20 19:29 | 24.90724 | -79.71108 | 24664 ft | 454 kts | 151° |
| 2026-04-20 19:29 | 24.88056 | -79.69227 | 25021 ft | 456 kts | 151° |
| 2026-04-20 19:29 | 24.85374 | -79.67335 | 25370 ft | 459 kts | 151° |
| 2026-04-20 19:30 | 24.82679 | -79.65435 | 25714 ft | 462 kts | 151° |
| 2026-04-20 19:30 | 24.79962 | -79.63521 | 26048 ft | 465 kts | 151° |
| 2026-04-20 19:30 | 24.77269 | -79.61624 | 26379 ft | 467 kts | 152° |
| 2026-04-20 19:30 | 24.74527 | -79.59695 | 26714 ft | 470 kts | 152° |
| 2026-04-20 19:31 | 24.71765 | -79.57752 | 27036 ft | 472 kts | 152° |
| 2026-04-20 19:31 | 24.68992 | -79.55802 | 27360 ft | 474 kts | 152° |
| 2026-04-20 19:31 | 24.66203 | -79.53843 | 27673 ft | 477 kts | 152° |
| 2026-04-20 19:31 | 24.63399 | -79.51874 | 27970 ft | 479 kts | 152° |
| 2026-04-20 19:32 | 24.60582 | -79.49896 | 28267 ft | 482 kts | 152° |
| 2026-04-20 19:32 | 24.57750 | -79.47909 | 28557 ft | 485 kts | 152° |
| 2026-04-20 19:32 | 24.54898 | -79.45910 | 28858 ft | 487 kts | 152° |
| 2026-04-20 19:32 | 24.52035 | -79.43903 | 29156 ft | 490 kts | 152° |
| 2026-04-20 19:33 | 24.49159 | -79.41888 | 29452 ft | 492 kts | 153° |
| 2026-04-20 19:33 | 24.46261 | -79.39861 | 29723 ft | 495 kts | 153° |
| 2026-04-20 19:33 | 24.43351 | -79.37824 | 30005 ft | 497 kts | 153° |
| 2026-04-20 19:33 | 24.40429 | -79.35781 | 30258 ft | 499 kts | 153° |
| 2026-04-20 19:34 | 24.37490 | -79.33727 | 30484 ft | 502 kts | 153° |
| 2026-04-20 19:34 | 24.34540 | -79.31667 | 30705 ft | 504 kts | 153° |
| 2026-04-20 19:34 | 24.31573 | -79.29592 | 30929 ft | 507 kts | 152° |
| 2026-04-20 19:34 | 24.28618 | -79.27469 | 31158 ft | 510 kts | 152° |
| 2026-04-20 19:35 | 24.25648 | -79.25333 | 31374 ft | 512 kts | 152° |
| 2026-04-20 19:35 | 24.22661 | -79.23190 | 31602 ft | 514 kts | 152° |
| 2026-04-20 19:35 | 24.19667 | -79.21044 | 31896 ft | 514 kts | 152° |
| 2026-04-20 19:35 | 24.16671 | -79.18898 | 32197 ft | 515 kts | 152° |
| 2026-04-20 19:36 | 24.13674 | -79.16753 | 32498 ft | 515 kts | 152° |
| 2026-04-20 19:36 | 24.10672 | -79.14605 | 32792 ft | 516 kts | 152° |
| 2026-04-20 19:36 | 24.07671 | -79.12460 | 33084 ft | 516 kts | 152° |
| 2026-04-20 19:36 | 24.04662 | -79.10310 | 33382 ft | 516 kts | 152° |
| 2026-04-20 19:37 | 24.01627 | -79.08229 | 33663 ft | 512 kts | 159° |
| 2026-04-20 19:37 | 23.98363 | -79.06882 | 33969 ft | 495 kts | 174° |
| 2026-04-20 19:37 | 23.95004 | -79.06105 | 34190 ft | 494 kts | 176° |
| 2026-04-20 19:37 | 23.91627 | -79.05369 | 34408 ft | 494 kts | 176° |
| 2026-04-20 19:38 | 23.88251 | -79.04665 | 34651 ft | 494 kts | 176° |
| 2026-04-20 19:38 | 23.84873 | -79.03982 | 34897 ft | 494 kts | 177° |
| 2026-04-20 19:38 | 23.81490 | -79.03310 | 35143 ft | 494 kts | 177° |
| 2026-04-20 19:38 | 23.78156 | -79.02649 | 35392 ft | 493 kts | 177° |
| 2026-04-20 19:39 | 23.74782 | -79.01981 | 35640 ft | 493 kts | 177° |
| 2026-04-20 19:39 | 23.71411 | -79.01315 | 35899 ft | 492 kts | 177° |
| 2026-04-20 19:39 | 23.68047 | -79.00650 | 36162 ft | 491 kts | 177° |
| 2026-04-20 19:39 | 23.64686 | -78.99986 | 36363 ft | 491 kts | 177° |
| 2026-04-20 19:40 | 23.61327 | -78.99323 | 36589 ft | 490 kts | 177° |
| 2026-04-20 19:40 | 23.57970 | -78.98661 | 36802 ft | 490 kts | 177° |
| 2026-04-20 19:40 | 23.54617 | -78.97999 | 37006 ft | 490 kts | 177° |
| 2026-04-20 19:41 | 23.47902 | -78.96676 | 37064 ft | 489 kts | 177° |
| 2026-04-20 19:41 | 23.41224 | -78.95361 | 37069 ft | 488 kts | 177° |
| 2026-04-20 19:42 | 23.34540 | -78.94047 | 37045 ft | 488 kts | 176° |
| 2026-04-20 19:42 | 23.27856 | -78.92734 | 37077 ft | 488 kts | 176° |
| 2026-04-20 19:43 | 23.21181 | -78.91424 | 37067 ft | 488 kts | 176° |
| 2026-04-20 19:43 | 23.14503 | -78.90672 | 37094 ft | 482 kts | 182° |
| 2026-04-20 19:44 | 23.07821 | -78.90097 | 37064 ft | 481 kts | 183° |
| 2026-04-20 19:44 | 23.01143 | -78.89531 | 37050 ft | 481 kts | 182° |
| 2026-04-20 19:45 | 22.94464 | -78.88966 | 37066 ft | 481 kts | 182° |
| 2026-04-20 19:45 | 22.87785 | -78.88401 | 37066 ft | 481 kts | 182° |
| 2026-04-20 19:46 | 22.81107 | -78.87837 | 37057 ft | 481 kts | 182° |
| 2026-04-20 19:46 | 22.74426 | -78.87273 | 37062 ft | 481 kts | 182° |
| 2026-04-20 19:47 | 22.67796 | -78.86714 | 37049 ft | 481 kts | 182° |
| 2026-04-20 19:47 | 22.61118 | -78.86152 | 37058 ft | 481 kts | 182° |
| 2026-04-20 19:48 | 22.54440 | -78.85590 | 37056 ft | 481 kts | 182° |
| 2026-04-20 19:48 | 22.47766 | -78.85029 | 37056 ft | 481 kts | 182° |
| 2026-04-20 19:49 | 22.41090 | -78.84468 | 37051 ft | 481 kts | 182° |
| 2026-04-20 19:49 | 22.34414 | -78.83908 | 37045 ft | 481 kts | 182° |
| 2026-04-20 19:50 | 22.27744 | -78.83349 | 37044 ft | 480 kts | 182° |
| 2026-04-20 19:50 | 22.21076 | -78.82791 | 37045 ft | 480 kts | 182° |
| 2026-04-20 19:51 | 22.14409 | -78.82233 | 37036 ft | 481 kts | 182° |
| 2026-04-20 19:51 | 22.07737 | -78.81675 | 37036 ft | 480 kts | 182° |
| 2026-04-20 19:52 | 22.01080 | -78.81119 | 37026 ft | 479 kts | 181° |
| 2026-04-20 19:52 | 21.94439 | -78.80565 | 37025 ft | 479 kts | 181° |
| 2026-04-20 19:53 | 21.87796 | -78.80012 | 37020 ft | 479 kts | 181° |
| 2026-04-20 19:53 | 21.81150 | -78.79458 | 37015 ft | 479 kts | 181° |
| 2026-04-20 19:54 | 21.74506 | -78.78905 | 37001 ft | 479 kts | 181° |
| 2026-04-20 19:54 | 21.67876 | -78.78354 | 37015 ft | 478 kts | 181° |
| 2026-04-20 19:55 | 21.61249 | -78.77804 | 37013 ft | 477 kts | 181° |
| 2026-04-20 19:55 | 21.54624 | -78.77255 | 37014 ft | 477 kts | 181° |
| 2026-04-20 19:56 | 21.49120 | -78.76798 | 37002 ft | 477 kts | 181° |
| 2026-04-20 19:56 | 21.41416 | -78.76160 | 36998 ft | 478 kts | 181° |
| 2026-04-20 19:57 | 21.34796 | -78.75612 | 37013 ft | 477 kts | 181° |
| 2026-04-20 19:57 | 21.28181 | -78.75066 | 37014 ft | 477 kts | 181° |
| 2026-04-20 19:58 | 21.21563 | -78.74519 | 37017 ft | 477 kts | 181° |
| 2026-04-20 19:58 | 21.14947 | -78.73973 | 37017 ft | 477 kts | 181° |
| 2026-04-20 19:59 | 21.08333 | -78.73428 | 37019 ft | 477 kts | 181° |
| 2026-04-20 19:59 | 21.01717 | -78.72884 | 37021 ft | 477 kts | 181° |
| 2026-04-20 20:00 | 20.95101 | -78.72339 | 37018 ft | 477 kts | 181° |
| 2026-04-20 20:00 | 20.88486 | -78.71795 | 37020 ft | 477 kts | 181° |
| 2026-04-20 20:01 | 20.81865 | -78.71251 | 37020 ft | 477 kts | 181° |
| 2026-04-20 20:01 | 20.75250 | -78.70708 | 37000 ft | 477 kts | 181° |
| 2026-04-20 20:02 | 20.68638 | -78.70166 | 37015 ft | 476 kts | 181° |
| 2026-04-20 20:02 | 20.62027 | -78.69624 | 37017 ft | 476 kts | 181° |
| 2026-04-20 20:03 | 20.55422 | -78.69084 | 37019 ft | 476 kts | 181° |
| 2026-04-20 20:03 | 20.48810 | -78.68543 | 37018 ft | 476 kts | 181° |
| 2026-04-20 20:04 | 20.42207 | -78.68003 | 37008 ft | 476 kts | 181° |
| 2026-04-20 20:04 | 20.35603 | -78.67464 | 37014 ft | 476 kts | 181° |
| 2026-04-20 20:05 | 20.28997 | -78.66925 | 37015 ft | 476 kts | 181° |
| 2026-04-20 20:05 | 20.22436 | -78.66390 | 37016 ft | 476 kts | 181° |
| 2026-04-20 20:06 | 20.15833 | -78.65853 | 37018 ft | 476 kts | 181° |
| 2026-04-20 20:06 | 20.09227 | -78.65315 | 37003 ft | 476 kts | 181° |
| 2026-04-20 20:07 | 20.03707 | -78.64866 | 37017 ft | 474 kts | 181° |
| 2026-04-20 20:07 | 19.97189 | -78.64595 | 37031 ft | 471 kts | 184° |
| 2026-04-20 20:08 | 19.90626 | -78.64469 | 37015 ft | 471 kts | 184° |
| 2026-04-20 20:08 | 19.84060 | -78.64311 | 37018 ft | 472 kts | 184° |
| 2026-04-20 20:09 | 19.77493 | -78.64151 | 37018 ft | 472 kts | 184° |
| 2026-04-20 20:09 | 19.70940 | -78.63992 | 37016 ft | 470 kts | 184° |
| 2026-04-20 20:10 | 19.64400 | -78.63833 | 37012 ft | 470 kts | 184° |
| 2026-04-20 20:10 | 19.57862 | -78.63674 | 37012 ft | 470 kts | 184° |
| 2026-04-20 20:11 | 19.51325 | -78.63515 | 37009 ft | 470 kts | 184° |
| 2026-04-20 20:11 | 19.44787 | -78.63356 | 37010 ft | 470 kts | 184° |
| 2026-04-20 20:12 | 19.38252 | -78.63198 | 37006 ft | 469 kts | 183° |
| 2026-04-20 20:12 | 19.31719 | -78.63040 | 37007 ft | 469 kts | 183° |
| 2026-04-20 20:13 | 19.21970 | -78.62804 | 37004 ft | 469 kts | 183° |
| 2026-04-20 20:13 | 19.15438 | -78.62646 | 37004 ft | 469 kts | 183° |
| 2026-04-20 20:14 | 19.08906 | -78.62488 | 36993 ft | 469 kts | 183° |
| 2026-04-20 20:14 | 19.02383 | -78.62330 | 37001 ft | 469 kts | 183° |
| 2026-04-20 20:15 | 18.95858 | -78.62173 | 37005 ft | 469 kts | 183° |
| 2026-04-20 20:15 | 18.89326 | -78.62023 | 37004 ft | 469 kts | 183° |
| 2026-04-20 20:16 | 18.82802 | -78.61875 | 37004 ft | 469 kts | 183° |
| 2026-04-20 20:16 | 18.76277 | -78.61726 | 36984 ft | 469 kts | 183° |
| 2026-04-20 20:17 | 18.69760 | -78.61578 | 37001 ft | 468 kts | 183° |
| 2026-04-20 20:17 | 18.63250 | -78.61430 | 37004 ft | 468 kts | 182° |
| 2026-04-20 20:18 | 18.56744 | -78.61282 | 37004 ft | 468 kts | 183° |
| 2026-04-20 20:18 | 18.50228 | -78.61134 | 37004 ft | 468 kts | 182° |
| 2026-04-20 20:19 | 18.43720 | -78.60987 | 36999 ft | 468 kts | 183° |
| 2026-04-20 20:19 | 18.37216 | -78.60839 | 36997 ft | 467 kts | 182° |
| 2026-04-20 20:20 | 18.30719 | -78.60692 | 36999 ft | 467 kts | 182° |
| 2026-04-20 20:20 | 18.24218 | -78.60545 | 36999 ft | 467 kts | 182° |
| 2026-04-20 20:21 | 18.17721 | -78.60398 | 36995 ft | 467 kts | 182° |
| 2026-04-20 20:21 | 18.11222 | -78.60251 | 36996 ft | 467 kts | 182° |
| 2026-04-20 20:22 | 18.04727 | -78.60104 | 36989 ft | 466 kts | 182° |
| 2026-04-20 20:22 | 17.98287 | -78.59960 | 36993 ft | 466 kts | 182° |
| 2026-04-20 20:23 | 17.91800 | -78.59813 | 36993 ft | 466 kts | 182° |
| 2026-04-20 20:23 | 17.85315 | -78.59667 | 36993 ft | 466 kts | 182° |
| 2026-04-20 20:24 | 17.78831 | -78.59521 | 36990 ft | 466 kts | 182° |
| 2026-04-20 20:24 | 17.72350 | -78.59375 | 36990 ft | 466 kts | 182° |
| 2026-04-20 20:25 | 17.65866 | -78.59229 | 36988 ft | 466 kts | 182° |
| 2026-04-20 20:25 | 17.59382 | -78.59082 | 36988 ft | 466 kts | 182° |
| 2026-04-20 20:26 | 17.52900 | -78.58936 | 36985 ft | 466 kts | 182° |
| 2026-04-20 20:26 | 17.46417 | -78.58790 | 36985 ft | 466 kts | 182° |
| 2026-04-20 20:27 | 17.39935 | -78.58643 | 36980 ft | 466 kts | 182° |
| 2026-04-20 20:27 | 17.33455 | -78.58498 | 36987 ft | 466 kts | 182° |
| 2026-04-20 20:28 | 17.26973 | -78.58352 | 36986 ft | 466 kts | 182° |
| 2026-04-20 20:28 | 17.20491 | -78.58206 | 36985 ft | 466 kts | 182° |
| 2026-04-20 20:29 | 17.14013 | -78.58061 | 36979 ft | 466 kts | 182° |
| 2026-04-20 20:29 | 17.07532 | -78.57915 | 36979 ft | 466 kts | 182° |
| 2026-04-20 20:30 | 17.01055 | -78.57770 | 36983 ft | 466 kts | 181° |
| 2026-04-20 20:30 | 16.94577 | -78.57624 | 36982 ft | 466 kts | 181° |
| 2026-04-20 20:31 | 16.88101 | -78.57479 | 36982 ft | 465 kts | 181° |
| 2026-04-20 20:31 | 16.81670 | -78.57335 | 36977 ft | 465 kts | 181° |
| 2026-04-20 20:32 | 16.75197 | -78.57190 | 36977 ft | 465 kts | 181° |
| 2026-04-20 20:32 | 16.68724 | -78.57046 | 36972 ft | 465 kts | 181° |
| 2026-04-20 20:33 | 16.62260 | -78.56901 | 36976 ft | 465 kts | 181° |
| 2026-04-20 20:33 | 16.55789 | -78.56757 | 36975 ft | 465 kts | 181° |
| 2026-04-20 20:34 | 16.49324 | -78.56612 | 36974 ft | 465 kts | 181° |
| 2026-04-20 20:34 | 16.42856 | -78.56468 | 36976 ft | 465 kts | 181° |
| 2026-04-20 20:35 | 16.36391 | -78.56324 | 36968 ft | 465 kts | 181° |
| 2026-04-20 20:35 | 16.29930 | -78.56180 | 36972 ft | 464 kts | 181° |
| 2026-04-20 20:36 | 16.23477 | -78.56036 | 36970 ft | 464 kts | 181° |
| 2026-04-20 20:36 | 16.17061 | -78.55894 | 36970 ft | 464 kts | 181° |
| 2026-04-20 20:37 | 16.10561 | -78.55749 | 36967 ft | 464 kts | 181° |
| 2026-04-20 20:37 | 16.04146 | -78.55607 | 36966 ft | 464 kts | 181° |
| 2026-04-20 20:38 | 15.97649 | -78.55462 | 36976 ft | 464 kts | 181° |
| 2026-04-20 20:38 | 15.91193 | -78.55319 | 36967 ft | 464 kts | 181° |
| 2026-04-20 20:39 | 15.84783 | -78.55177 | 36964 ft | 464 kts | 181° |
| 2026-04-20 20:39 | 15.78331 | -78.55034 | 36961 ft | 464 kts | 181° |
| 2026-04-20 20:40 | 15.71879 | -78.54891 | 36969 ft | 464 kts | 181° |
| 2026-04-20 20:40 | 15.65423 | -78.54748 | 36964 ft | 464 kts | 180° |
| 2026-04-20 20:41 | 15.58961 | -78.54606 | 36955 ft | 464 kts | 180° |
| 2026-04-20 20:41 | 15.52500 | -78.54463 | 36964 ft | 464 kts | 180° |
| 2026-04-20 20:42 | 15.46036 | -78.54320 | 36956 ft | 464 kts | 180° |
| 2026-04-20 20:42 | 15.39574 | -78.54177 | 36956 ft | 464 kts | 180° |
| 2026-04-20 20:43 | 15.33112 | -78.54035 | 36948 ft | 464 kts | 180° |
| 2026-04-20 20:43 | 15.26647 | -78.53893 | 36950 ft | 465 kts | 180° |
| 2026-04-20 20:44 | 15.20182 | -78.53749 | 36954 ft | 465 kts | 180° |
| 2026-04-20 20:44 | 15.13720 | -78.53607 | 36946 ft | 465 kts | 180° |
| 2026-04-20 20:45 | 15.07255 | -78.53465 | 36948 ft | 465 kts | 180° |
| 2026-04-20 20:45 | 15.00790 | -78.53336 | 36950 ft | 464 kts | 183° |
| 2026-04-20 20:46 | 14.94449 | -78.54333 | 36943 ft | 463 kts | 191° |
| 2026-04-20 20:46 | 14.88105 | -78.55457 | 36953 ft | 463 kts | 191° |
| 2026-04-20 20:47 | 14.81768 | -78.56602 | 36945 ft | 462 kts | 191° |
| 2026-04-20 20:47 | 14.75472 | -78.57738 | 36951 ft | 462 kts | 191° |
| 2026-04-20 20:48 | 14.69135 | -78.58881 | 36945 ft | 462 kts | 191° |
| 2026-04-20 20:48 | 14.62797 | -78.60024 | 36938 ft | 462 kts | 191° |
| 2026-04-20 20:49 | 14.56452 | -78.61168 | 36943 ft | 463 kts | 191° |
| 2026-04-20 20:49 | 14.50102 | -78.62312 | 36945 ft | 463 kts | 191° |
| 2026-04-20 20:50 | 14.43755 | -78.63454 | 36942 ft | 463 kts | 191° |
| 2026-04-20 20:50 | 14.37411 | -78.64596 | 36938 ft | 463 kts | 191° |
| 2026-04-20 20:51 | 14.31068 | -78.65736 | 36940 ft | 463 kts | 192° |
| 2026-04-20 20:51 | 14.24722 | -78.66877 | 36946 ft | 463 kts | 191° |
| 2026-04-20 20:52 | 14.18376 | -78.68017 | 36944 ft | 463 kts | 191° |
| 2026-04-20 20:52 | 14.12033 | -78.69156 | 36939 ft | 462 kts | 191° |
| 2026-04-20 20:53 | 14.05692 | -78.70293 | 36942 ft | 463 kts | 191° |
| 2026-04-20 20:53 | 13.99350 | -78.71430 | 36935 ft | 463 kts | 192° |
| 2026-04-20 20:54 | 13.93044 | -78.72560 | 36937 ft | 463 kts | 191° |
| 2026-04-20 20:54 | 13.86689 | -78.73699 | 36938 ft | 464 kts | 191° |
| 2026-04-20 20:55 | 13.80333 | -78.74837 | 36933 ft | 464 kts | 191° |
| 2026-04-20 20:55 | 13.73975 | -78.75974 | 36936 ft | 464 kts | 191° |
| 2026-04-20 20:56 | 13.67618 | -78.77110 | 36940 ft | 464 kts | 190° |
| 2026-04-20 20:56 | 13.61261 | -78.78247 | 36935 ft | 464 kts | 191° |
| 2026-04-20 20:57 | 13.54904 | -78.79382 | 36929 ft | 463 kts | 190° |
| 2026-04-20 20:57 | 13.48556 | -78.80516 | 36932 ft | 463 kts | 191° |
| 2026-04-20 20:58 | 13.43234 | -78.81465 | 36931 ft | 463 kts | 190° |
| 2026-04-20 20:58 | 13.36884 | -78.82597 | 36928 ft | 463 kts | 191° |
| 2026-04-20 20:59 | 13.30536 | -78.83729 | 36930 ft | 463 kts | 190° |
| 2026-04-20 20:59 | 13.24186 | -78.84860 | 36924 ft | 463 kts | 189° |
| 2026-04-20 21:00 | 13.17843 | -78.85989 | 36927 ft | 462 kts | 189° |
| 2026-04-20 21:00 | 13.11502 | -78.87118 | 36930 ft | 462 kts | 190° |
| 2026-04-20 21:01 | 13.05163 | -78.88245 | 36925 ft | 462 kts | 189° |
| 2026-04-20 21:01 | 12.98823 | -78.89372 | 36925 ft | 462 kts | 190° |
| 2026-04-20 21:02 | 12.92486 | -78.90498 | 36925 ft | 462 kts | 189° |
| 2026-04-20 21:02 | 12.86194 | -78.91615 | 36928 ft | 461 kts | 189° |
| 2026-04-20 21:03 | 12.79886 | -78.92736 | 36921 ft | 460 kts | 189° |
| 2026-04-20 21:03 | 12.73576 | -78.93855 | 36919 ft | 460 kts | 189° |
| 2026-04-20 21:04 | 12.67269 | -78.94973 | 36927 ft | 460 kts | 189° |
| 2026-04-20 21:04 | 12.60961 | -78.96091 | 36923 ft | 460 kts | 189° |
| 2026-04-20 21:05 | 12.54656 | -78.97208 | 36922 ft | 460 kts | 189° |
| 2026-04-20 21:05 | 12.48365 | -78.98323 | 36917 ft | 458 kts | 189° |
| 2026-04-20 21:06 | 12.42090 | -78.99433 | 36916 ft | 457 kts | 189° |
| 2026-04-20 21:06 | 12.35814 | -79.00543 | 36924 ft | 457 kts | 189° |
| 2026-04-20 21:07 | 12.29537 | -79.01653 | 36922 ft | 458 kts | 189° |
| 2026-04-20 21:07 | 12.23265 | -79.02761 | 36917 ft | 458 kts | 189° |
| 2026-04-20 21:08 | 12.16984 | -79.03871 | 36913 ft | 458 kts | 189° |
| 2026-04-20 21:08 | 12.10706 | -79.04979 | 36916 ft | 458 kts | 189° |
| 2026-04-20 21:09 | 12.04423 | -79.06087 | 36921 ft | 459 kts | 188° |
| 2026-04-20 21:09 | 11.98138 | -79.07196 | 36916 ft | 459 kts | 189° |
| 2026-04-20 21:10 | 11.91850 | -79.08304 | 36913 ft | 458 kts | 189° |
| 2026-04-20 21:10 | 11.85563 | -79.09412 | 36914 ft | 458 kts | 189° |
| 2026-04-20 21:11 | 11.79277 | -79.10520 | 36911 ft | 459 kts | 188° |
| 2026-04-20 21:11 | 11.73033 | -79.11619 | 36912 ft | 459 kts | 188° |
| 2026-04-20 21:12 | 11.66747 | -79.12725 | 36910 ft | 459 kts | 189° |
| 2026-04-20 21:12 | 11.60437 | -79.13662 | 36913 ft | 458 kts | 186° |
| 2026-04-20 21:13 | 11.54113 | -79.14519 | 36912 ft | 458 kts | 186° |
| 2026-04-20 21:13 | 11.47796 | -79.15391 | 36912 ft | 458 kts | 186° |
| 2026-04-20 21:14 | 11.41470 | -79.16264 | 36910 ft | 459 kts | 186° |
| 2026-04-20 21:14 | 11.35145 | -79.17137 | 36913 ft | 459 kts | 186° |
| 2026-04-20 21:15 | 11.28780 | -79.18014 | 36913 ft | 459 kts | 186° |
| 2026-04-20 21:15 | 11.22499 | -79.18880 | 36909 ft | 459 kts | 186° |
| 2026-04-20 21:16 | 11.16175 | -79.19752 | 36905 ft | 459 kts | 186° |
| 2026-04-20 21:16 | 11.09852 | -79.20622 | 36909 ft | 458 kts | 186° |
| 2026-04-20 21:17 | 11.03535 | -79.21492 | 36907 ft | 458 kts | 187° |
| 2026-04-20 21:17 | 10.97219 | -79.22361 | 36904 ft | 458 kts | 186° |
| 2026-04-20 21:18 | 10.90907 | -79.23229 | 36907 ft | 458 kts | 186° |
| 2026-04-20 21:18 | 10.84589 | -79.24097 | 36908 ft | 458 kts | 186° |
| 2026-04-20 21:19 | 10.78277 | -79.24965 | 36900 ft | 458 kts | 186° |
| 2026-04-20 21:20 | 10.68803 | -79.26266 | 36904 ft | 458 kts | 186° |
| 2026-04-20 21:20 | 10.62489 | -79.27133 | 36908 ft | 458 kts | 186° |
| 2026-04-20 21:21 | 10.56174 | -79.27999 | 36906 ft | 458 kts | 187° |
| 2026-04-20 21:21 | 10.49862 | -79.28865 | 36903 ft | 458 kts | 186° |
| 2026-04-20 21:22 | 10.43546 | -79.29731 | 36905 ft | 458 kts | 186° |
| 2026-04-20 21:22 | 10.37253 | -79.30749 | 36902 ft | 458 kts | 188° |
| 2026-04-20 21:23 | 10.30974 | -79.31766 | 36901 ft | 457 kts | 188° |
| 2026-04-20 21:23 | 10.24693 | -79.32778 | 36902 ft | 457 kts | 188° |
| 2026-04-20 21:24 | 10.18417 | -79.33790 | 36904 ft | 457 kts | 188° |
| 2026-04-20 21:24 | 10.12139 | -79.34801 | 36898 ft | 457 kts | 188° |
| 2026-04-20 21:25 | 10.05861 | -79.35812 | 36896 ft | 457 kts | 188° |
| 2026-04-20 21:25 | 9.99587 | -79.36822 | 36903 ft | 456 kts | 188° |
| 2026-04-20 21:26 | 9.93333 | -79.37829 | 36901 ft | 455 kts | 188° |
| 2026-04-20 21:26 | 9.87070 | -79.38836 | 36893 ft | 455 kts | 188° |
| 2026-04-20 21:27 | 9.80814 | -79.39842 | 36904 ft | 455 kts | 188° |
| 2026-04-20 21:27 | 9.74553 | -79.40848 | 36898 ft | 455 kts | 188° |
| 2026-04-20 21:28 | 9.68298 | -79.41854 | 36895 ft | 455 kts | 188° |
| 2026-04-20 21:28 | 9.62092 | -79.42850 | 36903 ft | 452 kts | 188° |
| 2026-04-20 21:29 | 9.55874 | -79.43849 | 36904 ft | 453 kts | 188° |
| 2026-04-20 21:29 | 9.49661 | -79.44846 | 36895 ft | 452 kts | 188° |
| 2026-04-20 21:30 | 9.43436 | -79.45845 | 36898 ft | 452 kts | 188° |
| 2026-04-20 21:30 | 9.37215 | -79.46843 | 36893 ft | 453 kts | 188° |
| 2026-04-20 21:31 | 9.31000 | -79.47839 | 36889 ft | 453 kts | 188° |
| 2026-04-20 21:31 | 9.24793 | -79.48833 | 36884 ft | 450 kts | 188° |
| 2026-04-20 21:32 | 9.18597 | -79.49826 | 36887 ft | 450 kts | 188° |
| 2026-04-20 21:32 | 9.12408 | -79.50817 | 36893 ft | 452 kts | 188° |
| 2026-04-20 21:33 | 9.06211 | -79.51810 | 36878 ft | 450 kts | 188° |
| 2026-04-20 21:33 | 9.00012 | -79.52801 | 36883 ft | 450 kts | 188° |
| 2026-04-20 21:34 | 8.93817 | -79.53793 | 36881 ft | 451 kts | 189° |
| 2026-04-20 21:34 | 8.87605 | -79.54786 | 36850 ft | 453 kts | 189° |
| 2026-04-20 21:35 | 8.81377 | -79.55650 | 36828 ft | 452 kts | 179° |
| 2026-04-20 21:35 | 8.78294 | -79.55205 | 36849 ft | 449 kts | 161° |
| 2026-04-20 21:35 | 8.75434 | -79.53920 | 36873 ft | 452 kts | 153° |
| 2026-04-20 21:36 | 8.69881 | -79.50903 | 36876 ft | 454 kts | 151° |
| 2026-04-20 21:36 | 8.64410 | -79.47745 | 36870 ft | 453 kts | 150° |
| 2026-04-20 21:37 | 8.58949 | -79.44540 | 36876 ft | 454 kts | 150° |
| 2026-04-20 21:37 | 8.53493 | -79.41331 | 36860 ft | 455 kts | 150° |
| 2026-04-20 21:38 | 8.48055 | -79.38132 | 36867 ft | 455 kts | 150° |
| 2026-04-20 21:38 | 8.42580 | -79.34914 | 36867 ft | 455 kts | 150° |
| 2026-04-20 21:39 | 8.37099 | -79.31693 | 36864 ft | 455 kts | 150° |
| 2026-04-20 21:39 | 8.31623 | -79.28475 | 36861 ft | 455 kts | 150° |
| 2026-04-20 21:40 | 8.26148 | -79.25260 | 36865 ft | 455 kts | 150° |
| 2026-04-20 21:40 | 8.20672 | -79.22045 | 36864 ft | 455 kts | 150° |
| 2026-04-20 21:41 | 8.15196 | -79.18831 | 36859 ft | 455 kts | 150° |
| 2026-04-20 21:41 | 8.09728 | -79.15622 | 36860 ft | 455 kts | 150° |
| 2026-04-20 21:42 | 8.04257 | -79.12413 | 36856 ft | 455 kts | 150° |
| 2026-04-20 21:42 | 7.98785 | -79.09205 | 36855 ft | 455 kts | 150° |
| 2026-04-20 21:43 | 7.93312 | -79.05997 | 36853 ft | 455 kts | 150° |
| 2026-04-20 21:43 | 7.88762 | -79.03331 | 36857 ft | 455 kts | 150° |
| 2026-04-20 21:44 | 7.83288 | -79.00123 | 36854 ft | 455 kts | 150° |
| 2026-04-20 21:44 | 7.77812 | -78.96916 | 36859 ft | 455 kts | 151° |
| 2026-04-20 21:45 | 7.72335 | -78.93709 | 36857 ft | 455 kts | 150° |
| 2026-04-20 21:45 | 7.66858 | -78.90504 | 36854 ft | 455 kts | 150° |
| 2026-04-20 21:46 | 7.61383 | -78.87300 | 36857 ft | 455 kts | 151° |
| 2026-04-20 21:46 | 7.55904 | -78.84095 | 36859 ft | 455 kts | 151° |
| 2026-04-20 21:47 | 7.50427 | -78.80891 | 36854 ft | 455 kts | 150° |
| 2026-04-20 21:47 | 7.45002 | -78.77596 | 36864 ft | 455 kts | 150° |
| 2026-04-20 21:48 | 7.39575 | -78.74304 | 36859 ft | 455 kts | 150° |
| 2026-04-20 21:48 | 7.34156 | -78.71020 | 36857 ft | 455 kts | 150° |
| 2026-04-20 21:49 | 7.28733 | -78.67735 | 36857 ft | 455 kts | 150° |
| 2026-04-20 21:49 | 7.23303 | -78.64447 | 36859 ft | 456 kts | 150° |
| 2026-04-20 21:50 | 7.17871 | -78.61158 | 36854 ft | 456 kts | 150° |
| 2026-04-20 21:50 | 7.12472 | -78.57891 | 36855 ft | 456 kts | 150° |
| 2026-04-20 21:51 | 7.07040 | -78.54604 | 36860 ft | 456 kts | 150° |
| 2026-04-20 21:51 | 7.01604 | -78.51316 | 36857 ft | 456 kts | 150° |
| 2026-04-20 21:52 | 6.96171 | -78.48030 | 36856 ft | 456 kts | 150° |
| 2026-04-20 21:52 | 6.90732 | -78.44742 | 36858 ft | 456 kts | 150° |
| 2026-04-20 21:53 | 6.85299 | -78.41458 | 36857 ft | 456 kts | 150° |
| 2026-04-20 21:53 | 6.79867 | -78.38176 | 36856 ft | 456 kts | 150° |
| 2026-04-20 21:54 | 6.74433 | -78.34893 | 36856 ft | 456 kts | 150° |
| 2026-04-20 21:54 | 6.68968 | -78.31670 | 36855 ft | 455 kts | 150° |
| 2026-04-20 21:55 | 6.63490 | -78.28465 | 36856 ft | 455 kts | 150° |
| 2026-04-20 21:55 | 6.58014 | -78.25257 | 36857 ft | 455 kts | 150° |
| 2026-04-20 21:56 | 6.52539 | -78.22051 | 36852 ft | 455 kts | 150° |
| 2026-04-20 21:56 | 6.47098 | -78.18865 | 36855 ft | 456 kts | 150° |
| 2026-04-20 21:57 | 6.41623 | -78.15661 | 36855 ft | 455 kts | 150° |
| 2026-04-20 21:57 | 6.36149 | -78.12458 | 36853 ft | 455 kts | 150° |
| 2026-04-20 21:58 | 6.30674 | -78.09255 | 36848 ft | 455 kts | 150° |
| 2026-04-20 21:58 | 6.25194 | -78.06050 | 36853 ft | 455 kts | 150° |
| 2026-04-20 21:59 | 6.19720 | -78.02849 | 36853 ft | 455 kts | 150° |
| 2026-04-20 21:59 | 6.14245 | -77.99649 | 36855 ft | 455 kts | 150° |
| 2026-04-20 22:00 | 6.08767 | -77.96447 | 36850 ft | 455 kts | 150° |
| 2026-04-20 22:00 | 6.03285 | -77.93244 | 36851 ft | 456 kts | 150° |
| 2026-04-20 22:01 | 5.97796 | -77.90038 | 36855 ft | 456 kts | 150° |
| 2026-04-20 22:01 | 5.92312 | -77.86834 | 36850 ft | 456 kts | 150° |
| 2026-04-20 22:02 | 5.86832 | -77.83635 | 36851 ft | 455 kts | 150° |
| 2026-04-20 22:02 | 5.81352 | -77.80436 | 36851 ft | 456 kts | 150° |
| 2026-04-20 22:03 | 5.75874 | -77.77239 | 36851 ft | 455 kts | 150° |
| 2026-04-20 22:03 | 5.70392 | -77.74040 | 36852 ft | 456 kts | 150° |
| 2026-04-20 22:04 | 5.64911 | -77.70843 | 36853 ft | 456 kts | 150° |
| 2026-04-20 22:04 | 5.59430 | -77.67646 | 36853 ft | 456 kts | 150° |
| 2026-04-20 22:05 | 5.53953 | -77.64453 | 36853 ft | 455 kts | 150° |
| 2026-04-20 22:05 | 5.48482 | -77.61263 | 36853 ft | 454 kts | 150° |
| 2026-04-20 22:06 | 5.43013 | -77.58076 | 36851 ft | 455 kts | 150° |
| 2026-04-20 22:06 | 5.37543 | -77.54888 | 36853 ft | 455 kts | 150° |
| 2026-04-20 22:07 | 5.32074 | -77.51702 | 36853 ft | 455 kts | 150° |
| 2026-04-20 22:07 | 5.26636 | -77.48534 | 36853 ft | 455 kts | 150° |
| 2026-04-20 22:08 | 5.21164 | -77.45347 | 36854 ft | 455 kts | 150° |
| 2026-04-20 22:08 | 5.15696 | -77.42164 | 36850 ft | 454 kts | 150° |
| 2026-04-20 22:09 | 5.10238 | -77.38986 | 36850 ft | 453 kts | 150° |
| 2026-04-20 22:09 | 5.04783 | -77.35812 | 36848 ft | 454 kts | 150° |
| 2026-04-20 22:10 | 4.99320 | -77.32632 | 36848 ft | 454 kts | 150° |
| 2026-04-20 22:10 | 4.93859 | -77.29455 | 36846 ft | 454 kts | 150° |
| 2026-04-20 22:11 | 4.88397 | -77.26278 | 36848 ft | 454 kts | 150° |
| 2026-04-20 22:11 | 4.82936 | -77.23102 | 36848 ft | 454 kts | 150° |
| 2026-04-20 22:12 | 4.77482 | -77.19931 | 36844 ft | 452 kts | 150° |
| 2026-04-20 22:12 | 4.72041 | -77.16768 | 36846 ft | 452 kts | 150° |
| 2026-04-20 22:13 | 4.66600 | -77.13605 | 36845 ft | 452 kts | 150° |
| 2026-04-20 22:13 | 4.61164 | -77.10446 | 36845 ft | 452 kts | 150° |
| 2026-04-20 22:14 | 4.55721 | -77.07283 | 36846 ft | 452 kts | 150° |
| 2026-04-20 22:14 | 4.50282 | -77.04124 | 36846 ft | 452 kts | 150° |
| 2026-04-20 22:15 | 4.44838 | -77.00962 | 36853 ft | 452 kts | 149° |
| 2026-04-20 22:15 | 4.39407 | -76.97808 | 36850 ft | 451 kts | 149° |
| 2026-04-20 22:16 | 4.34023 | -76.94681 | 36848 ft | 451 kts | 149° |
| 2026-04-20 22:16 | 4.28598 | -76.91532 | 36872 ft | 451 kts | 149° |
| 2026-04-20 22:17 | 4.23115 | -76.88549 | 36396 ft | 445 kts | 158° |
| 2026-04-20 22:17 | 4.20233 | -76.87396 | 35680 ft | 448 kts | 158° |
| 2026-04-20 22:17 | 4.17330 | -76.86227 | 34942 ft | 452 kts | 158° |
| 2026-04-20 22:17 | 4.14400 | -76.85054 | 34141 ft | 453 kts | 158° |
| 2026-04-20 22:18 | 4.11462 | -76.83881 | 32850 ft | 457 kts | 158° |
| 2026-04-20 22:18 | 4.08499 | -76.82698 | 31582 ft | 460 kts | 158° |
| 2026-04-20 22:18 | 4.05532 | -76.81514 | 30557 ft | 458 kts | 159° |
| 2026-04-20 22:18 | 4.02591 | -76.80339 | 29559 ft | 452 kts | 159° |
| 2026-04-20 22:19 | 3.99679 | -76.79177 | 28549 ft | 450 kts | 159° |
| 2026-04-20 22:19 | 3.96771 | -76.78016 | 27514 ft | 449 kts | 159° |
| 2026-04-20 22:19 | 3.93878 | -76.76861 | 26547 ft | 446 kts | 159° |
| 2026-04-20 22:19 | 3.91010 | -76.75716 | 25628 ft | 441 kts | 159° |
| 2026-04-20 22:20 | 3.88178 | -76.74586 | 24757 ft | 436 kts | 159° |
| 2026-04-20 22:20 | 3.85372 | -76.73467 | 23928 ft | 432 kts | 159° |
| 2026-04-20 22:20 | 3.82596 | -76.72359 | 23033 ft | 427 kts | 160° |
| 2026-04-20 22:20 | 3.79855 | -76.71265 | 22086 ft | 422 kts | 159° |
| 2026-04-20 22:21 | 3.77147 | -76.70183 | 21216 ft | 416 kts | 160° |
| 2026-04-20 22:21 | 3.74475 | -76.69118 | 20361 ft | 411 kts | 160° |
| 2026-04-20 22:21 | 3.71814 | -76.68056 | 19545 ft | 412 kts | 159° |
| 2026-04-20 22:21 | 3.69167 | -76.67000 | 18763 ft | 406 kts | 159° |
| 2026-04-20 22:22 | 3.66555 | -76.65958 | 17966 ft | 401 kts | 159° |
| 2026-04-20 22:22 | 3.63981 | -76.64931 | 17115 ft | 396 kts | 159° |
| 2026-04-20 22:22 | 3.61438 | -76.63918 | 16296 ft | 390 kts | 159° |
| 2026-04-20 22:22 | 3.58929 | -76.62917 | 15569 ft | 384 kts | 159° |
| 2026-04-20 22:23 | 3.56498 | -76.61947 | 15171 ft | 369 kts | 160° |
| 2026-04-20 22:23 | 3.54158 | -76.61014 | 14771 ft | 357 kts | 159° |
| 2026-04-20 22:23 | 3.51893 | -76.60113 | 14383 ft | 344 kts | 161° |
| 2026-04-20 22:23 | 3.49613 | -76.59585 | 14000 ft | 331 kts | 174° |
| 2026-04-20 22:24 | 3.47368 | -76.59282 | 13627 ft | 321 kts | 173° |
| 2026-04-20 22:24 | 3.45195 | -76.58974 | 13254 ft | 310 kts | 173° |
| 2026-04-20 22:24 | 3.43090 | -76.58671 | 12875 ft | 301 kts | 173° |
| 2026-04-20 22:24 | 3.41047 | -76.58378 | 12507 ft | 293 kts | 173° |
| 2026-04-20 22:25 | 3.39059 | -76.58091 | 12154 ft | 285 kts | 173° |
| 2026-04-20 22:25 | 3.37151 | -76.57815 | 11795 ft | 278 kts | 173° |
| 2026-04-20 22:25 | 3.35279 | -76.57545 | 11539 ft | 265 kts | 173° |
| 2026-04-20 22:25 | 3.33490 | -76.57286 | 11297 ft | 254 kts | 173° |
| 2026-04-20 22:26 | 3.31797 | -76.57042 | 11118 ft | 237 kts | 173° |
| 2026-04-20 22:26 | 3.30222 | -76.56815 | 10962 ft | 220 kts | 173° |
| 2026-04-20 22:26 | 3.28765 | -76.56582 | 10795 ft | 205 kts | 166° |
| 2026-04-20 22:27 | 3.26898 | -76.54659 | 10244 ft | 203 kts | 102° |
| 2026-04-20 22:27 | 3.26766 | -76.53246 | 10054 ft | 206 kts | 91° |
| 2026-04-20 22:27 | 3.26726 | -76.51813 | 9837 ft | 206 kts | 91° |
| 2026-04-20 22:27 | 3.26701 | -76.50374 | 9531 ft | 207 kts | 90° |
| 2026-04-20 22:28 | 3.26684 | -76.48930 | 9229 ft | 208 kts | 90° |
| 2026-04-20 22:28 | 3.26673 | -76.47488 | 8916 ft | 207 kts | 90° |
| 2026-04-20 22:28 | 3.26666 | -76.46061 | 8629 ft | 203 kts | 90° |
| 2026-04-20 22:28 | 3.26710 | -76.44665 | 8327 ft | 200 kts | 78° |
| 2026-04-20 22:29 | 3.27446 | -76.43536 | 7877 ft | 199 kts | 29° |
| 2026-04-20 22:29 | 3.28743 | -76.43064 | 7520 ft | 199 kts | 17° |
| 2026-04-20 22:29 | 3.30078 | -76.42670 | 7137 ft | 202 kts | 15° |
| 2026-04-20 22:29 | 3.31450 | -76.42317 | 6742 ft | 205 kts | 13° |
| 2026-04-20 22:30 | 3.32860 | -76.42001 | 6342 ft | 210 kts | 11° |
| 2026-04-20 22:30 | 3.34286 | -76.41714 | 6060 ft | 203 kts | 10° |
| 2026-04-20 22:30 | 3.35611 | -76.41466 | 6037 ft | 189 kts | 9° |
| 2026-04-20 22:30 | 3.36899 | -76.41230 | 6002 ft | 188 kts | 10° |
| 2026-04-20 22:31 | 3.38187 | -76.40990 | 5913 ft | 189 kts | 9° |
| 2026-04-20 22:31 | 3.39465 | -76.40760 | 5698 ft | 185 kts | 9° |
| 2026-04-20 22:31 | 3.40742 | -76.40534 | 5502 ft | 187 kts | 9° |
| 2026-04-20 22:31 | 3.42022 | -76.40310 | 5272 ft | 187 kts | 9° |
| 2026-04-20 22:32 | 3.42873 | -76.40161 | 5115 ft | 187 kts | 9° |
| 2026-04-20 22:32 | 3.44098 | -76.39948 | 4900 ft | 170 kts | 9° |
| 2026-04-20 22:32 | 3.45217 | -76.39753 | 4716 ft | 160 kts | 9° |
| 2026-04-20 22:32 | 3.46300 | -76.39564 | 4505 ft | 157 kts | 9° |
| 2026-04-20 22:33 | 3.47377 | -76.39377 | 4299 ft | 157 kts | 9° |
| 2026-04-20 22:33 | 3.48451 | -76.39190 | 4093 ft | 157 kts | 9° |
| 2026-04-20 22:33 | 3.49524 | -76.39003 | 3885 ft | 156 kts | 9° |
| 2026-04-20 22:33 | 3.50591 | -76.38817 | 3679 ft | 156 kts | 9° |
| 2026-04-20 22:34 | 3.51660 | -76.38632 | 3471 ft | 156 kts | 9° |
| 2026-04-20 22:34 | 3.52711 | -76.38449 | 3258 ft | 152 kts | 9° |
| 2026-04-20 22:34 | 3.53707 | -76.38272 | 3167 ft | 127 kts | 9° |
| 2026-04-20 22:34 | 3.54358 | -76.38162 | 3170 ft | 65 kts | 9° |
| 2026-04-20 22:35 | 3.54581 | -76.38139 | 3169 ft | 15 kts | 320° |
| 2026-04-20 22:35 | 3.54610 | -76.38232 | 3166 ft | 8 kts | 280° |
| 2026-04-20 22:35 | 3.54605 | -76.38268 | 3167 ft | 3 kts | 232° |
| 2026-04-20 22:35 | 3.54577 | -76.38282 | 3167 ft | 7 kts | 197° |
| 2026-04-20 22:36 | 3.54500 | -76.38298 | 3167 ft | 16 kts | 189° |
| 2026-04-20 22:36 | 3.54365 | -76.38322 | 3169 ft | 23 kts | 191° |
| 2026-04-20 22:36 | 3.54280 | -76.38337 | 3168 ft | 0 kts | 190° |
| 2026-04-20 22:37 | 3.54279 | -76.38338 | 3168 ft | 1 kts | 190° |
| 2026-04-20 22:37 | 3.54240 | -76.38344 | 3168 ft | 11 kts | 190° |
| 2026-04-20 22:37 | 3.54153 | -76.38359 | 3168 ft | 15 kts | 191° |
| 2026-04-20 22:37 | 3.54050 | -76.38408 | 3167 ft | 18 kts | 217° |
| 2026-04-20 22:38 | 3.53929 | -76.38508 | 3166 ft | 25 kts | 220° |
| 2026-04-20 22:38 | 3.53828 | -76.38582 | 3165 ft | 15 kts | 190° |
| 2026-04-20 22:38 | 3.53742 | -76.38548 | 3166 ft | 9 kts | 162° |
| 2026-04-20 22:38 | 3.53721 | -76.38560 | 3167 ft | 3 kts | 234° |
| 2026-04-20 22:39 | 3.53707 | -76.38585 | 3167 ft | 4 kts | 246° |
| 2026-04-20 22:39 | 3.53705 | -76.38591 | 3167 ft | 1 kts | 246° |
| 2026-04-20 22:39 | 3.53701 | -76.38600 | 3165 ft | 2 kts | 246° |
| 2026-04-20 22:39 | 3.53700 | -76.38601 | 3165 ft | 0 kts | 246° |